Aérodrome :
LOGIN :

S'inscrire | Disclaimer

   EN    FR    IT 

 










Légende :    VFR   VFR Marginal   IFR   IFR Intensif   IFR Très Intensif
Visi : 
Plafond : 
>= 8 km
>= 3000ft
5 à 8 km
1000 à 3000 ft
1500m à 5 km
500 à 1000 ft
800 à 1500m
200 à 500 ft
< 800m
< 200 ft
Symboles :   Orages  Brouillard  Fortes neiges  Fortes précipitations  Vent > 20 kt
SIGMETs :   Divers  Orages  Givrage  Turbulence  Onde Orograph.  Cendres Volcan.







- Altitude de l'aérodrome : 505 ft
- Code IATA : SXB
- Voir les cartes d'approche


LFST - Strasbourg

DERNIER METAR :
  • 221500Z AUTO VRB03KT 9999 NCD 25/09 Q1016 NOSIG

METARs EXPIRÉS :
  • 221430Z AUTO VRB02KT 9999 NCD 25/09 Q1016 NOSIG
  • 221400Z AUTO VRB02KT 9999 NCD 25/10 Q1017 NOSIG
  • 221330Z AUTO 07004KT 010V170 9999 ////// 24/10 Q1017
  • 221300Z AUTO 16004KT 090V250 9999 NCD 24/11 Q1017 NOSIG
  • 221230Z AUTO VRB02KT 9999 // NCD 23/09 Q1017

TAF TAF LFST
Valide du 22 à 12h jusqu'au 23 à 12h UTC


221100Z 2212/2312 VRB03KT CAVOK
Pas de NOTAMs connus pour ce terrain.



MET'MAP, la Météo Aéronautique d'un coup d'oeil ! - Copyright ORBIFLY Décembre 2007 - Disclaimer

ORBIFLY MET'MAP TEAM :

Programmation & Développement : Alexandra Zaïnal
Conception & Développement : Baudouin d'Aumeries
Co-Programmation & Développement : Marc-Olivier Méhu
Soutien technique & logistique : Manuel Goepfert

Contact : metmap@orbifly.com




SOURCES & CREDITS :

   NOAA